createdAt,value
2022-09-25T00:01:10.764Z,7.70
2022-09-25T00:03:40.845Z,7.95
2022-09-25T00:06:11.117Z,8.30
2022-09-25T00:08:40.103Z,7.70
2022-09-25T00:11:09.829Z,7.18
2022-09-25T00:13:38.226Z,9.90
2022-09-25T00:16:06.489Z,8.48
2022-09-25T00:18:51.976Z,9.05
2022-09-25T00:21:21.191Z,7.03
2022-09-25T00:23:48.997Z,7.82
2022-09-25T00:26:17.993Z,7.38
2022-09-25T00:28:45.772Z,6.55
2022-09-25T00:31:21.225Z,7.28
2022-09-25T00:33:49.129Z,7.90
2022-09-25T00:36:16.911Z,6.68
2022-09-25T00:38:46.244Z,7.80
2022-09-25T00:41:14.056Z,7.18
2022-09-25T00:43:44.527Z,7.15
2022-09-25T00:46:16.755Z,5.95
2022-09-25T00:48:50.707Z,6.50
2022-09-25T00:51:29.777Z,8.57
2022-09-25T00:54:04.432Z,6.55
2022-09-25T00:56:37.438Z,6.32
2022-09-25T00:59:06.830Z,5.28
2022-09-25T01:01:34.789Z,6.40
2022-09-25T01:04:03.760Z,6.00
2022-09-25T01:06:33.412Z,7.13
2022-09-25T01:09:03.188Z,6.22
2022-09-25T01:11:32.062Z,6.32
2022-09-25T01:14:03.105Z,5.97
2022-09-25T01:16:38.477Z,5.68
2022-09-25T01:19:18.191Z,5.18
2022-09-25T01:21:52.767Z,5.18
2022-09-25T01:25:03.755Z,5.28
2022-09-25T01:27:59.454Z,4.13
2022-09-25T01:30:34.675Z,6.38
2022-09-25T01:33:08.873Z,4.60
2022-09-25T01:35:42.980Z,5.72
2022-09-25T01:38:21.123Z,3.53
2022-09-25T01:40:57.568Z,7.00
2022-09-25T01:43:32.095Z,5.80
2022-09-25T01:46:05.798Z,4.38
2022-09-25T01:48:34.756Z,5.00
2022-09-25T01:51:06.565Z,3.20
2022-09-25T01:53:39.284Z,4.70
2022-09-25T01:56:12.474Z,6.10
2022-09-25T01:58:44.178Z,4.85
2022-09-25T02:01:23.651Z,4.05
2022-09-25T02:03:57.127Z,4.00
2022-09-25T02:06:26.181Z,3.95
2022-09-25T02:12:00.373Z,6.10
2022-09-25T02:14:31.930Z,4.85
2022-09-25T02:17:04.094Z,7.03
2022-09-25T02:19:49.628Z,4.82
2022-09-25T02:22:22.384Z,5.00
2022-09-25T02:24:58.882Z,4.68
2022-09-25T02:27:28.638Z,6.07
2022-09-25T02:29:58.212Z,4.68
2022-09-25T02:32:30.766Z,3.78
2022-09-25T02:35:00.908Z,4.57
2022-09-25T02:37:29.613Z,4.80
2022-09-25T02:40:00.302Z,6.35
2022-09-25T02:42:36.564Z,3.88
2022-09-25T02:45:13.451Z,3.95
2022-09-25T02:47:51.026Z,5.13
2022-09-25T02:50:25.035Z,4.57
2022-09-25T02:52:59.982Z,4.70
2022-09-25T02:55:35.586Z,4.40
2022-09-25T02:58:09.270Z,4.07
2022-09-25T03:00:39.590Z,5.15
2022-09-25T03:03:13.747Z,5.18
2022-09-25T03:05:42.426Z,5.43
2022-09-25T03:08:28.489Z,5.50
2022-09-25T03:10:56.379Z,4.47
2022-09-25T03:13:31.327Z,4.25
2022-09-25T03:16:01.999Z,2.78
2022-09-25T03:18:32.166Z,3.50
2022-09-25T03:21:00.299Z,4.22
2022-09-25T03:23:28.034Z,3.60
2022-09-25T03:25:56.543Z,4.55
2022-09-25T03:28:24.607Z,3.17
2022-09-25T03:31:01.106Z,2.90
2022-09-25T03:33:32.327Z,4.05
2022-09-25T03:36:10.800Z,3.10
2022-09-25T03:38:38.949Z,3.10
2022-09-25T03:41:09.376Z,4.78
2022-09-25T03:43:37.518Z,4.38
2022-09-25T03:46:05.969Z,4.18
2022-09-25T03:48:36.033Z,4.72
2022-09-25T03:51:04.574Z,3.35
2022-09-25T03:53:33.370Z,4.88
2022-09-25T03:56:01.641Z,2.92
2022-09-25T03:58:29.766Z,2.50
2022-09-25T04:00:58.126Z,3.03
2022-09-25T04:03:27.924Z,3.58
2022-09-25T04:05:57.708Z,5.45
2022-09-25T04:08:26.973Z,2.95
2022-09-25T04:10:56.257Z,3.20
2022-09-25T04:13:24.547Z,3.40
2022-09-25T04:15:52.338Z,3.00
2022-09-25T04:18:20.594Z,3.63
2022-09-25T04:20:48.689Z,3.50
2022-09-25T04:23:18.474Z,2.30
2022-09-25T04:25:46.521Z,4.15
2022-09-25T04:28:14.267Z,3.45
2022-09-25T04:30:42.018Z,3.83
2022-09-25T04:33:27.978Z,3.33
2022-09-25T04:35:56.546Z,4.20
2022-09-25T04:38:25.782Z,2.95
2022-09-25T04:40:53.665Z,3.83
2022-09-25T04:43:21.574Z,3.85
2022-09-25T04:45:50.635Z,4.10
2022-09-25T04:48:18.453Z,3.92
2022-09-25T04:50:49.418Z,4.25
2022-09-25T04:53:17.448Z,4.00
2022-09-25T04:55:48.066Z,3.03
2022-09-25T04:58:15.853Z,2.80
2022-09-25T05:00:43.610Z,2.65
2022-09-25T05:03:11.489Z,4.20
2022-09-25T05:05:39.333Z,4.03
2022-09-25T05:08:07.394Z,2.47
2022-09-25T05:10:35.930Z,2.42
2022-09-25T05:13:06.192Z,3.58
2022-09-25T05:15:34.606Z,2.95
2022-09-25T05:18:03.769Z,3.00
2022-09-25T05:20:31.654Z,2.72
2022-09-25T05:23:00.141Z,3.30
2022-09-25T05:25:28.987Z,4.00
2022-09-25T05:27:59.461Z,3.35
2022-09-25T05:30:30.773Z,4.70
2022-09-25T05:32:59.288Z,3.70
2022-09-25T05:35:29.370Z,3.88
2022-09-25T05:37:57.198Z,4.25
2022-09-25T05:40:25.368Z,4.43
2022-09-25T05:42:55.136Z,4.68
2022-09-25T05:45:24.098Z,3.28
2022-09-25T05:48:02.948Z,5.53
2022-09-25T05:50:32.285Z,4.70
2022-09-25T05:53:00.812Z,4.15
2022-09-25T05:55:29.349Z,4.93
2022-09-25T05:58:01.184Z,2.85
2022-09-25T06:00:29.134Z,3.67
2022-09-25T06:02:56.898Z,4.28
2022-09-25T06:05:26.137Z,3.95
2022-09-25T06:07:54.545Z,3.75
2022-09-25T06:10:22.604Z,4.10
2022-09-25T06:12:50.421Z,2.97
2022-09-25T06:15:18.217Z,3.55
2022-09-25T06:17:45.975Z,3.83
2022-09-25T06:20:16.273Z,4.13
2022-09-25T06:22:45.691Z,4.85
2022-09-25T06:25:15.734Z,3.85
2022-09-25T06:27:43.658Z,2.63
2022-09-25T06:30:12.265Z,4.60
2022-09-25T06:32:40.038Z,2.95
2022-09-25T06:35:08.187Z,5.95
2022-09-25T06:37:35.935Z,4.45
2022-09-25T06:40:05.675Z,3.50
2022-09-25T06:42:35.199Z,3.90
2022-09-25T06:45:03.045Z,3.05
2022-09-25T06:47:30.792Z,3.92
2022-09-25T06:49:58.546Z,3.88
2022-09-25T06:52:27.661Z,3.08
2022-09-25T06:54:55.425Z,3.38
2022-09-25T06:57:24.559Z,3.97
2022-09-25T06:59:52.300Z,4.53
2022-09-25T07:02:40.001Z,3.00
2022-09-25T07:05:08.780Z,3.90
2022-09-25T07:07:36.567Z,4.82
2022-09-25T07:10:04.799Z,3.22
2022-09-25T07:12:34.531Z,3.72
2022-09-25T07:15:02.389Z,3.53
2022-09-25T07:17:30.137Z,4.53
2022-09-25T07:19:57.924Z,3.78
2022-09-25T07:22:25.637Z,3.38
2022-09-25T07:24:53.486Z,4.25
2022-09-25T07:27:21.185Z,4.13
2022-09-25T07:29:50.294Z,3.03
2022-09-25T07:32:18.062Z,3.53
2022-09-25T07:34:46.192Z,3.08
2022-09-25T07:37:13.920Z,4.20
2022-09-25T07:39:41.931Z,2.63
2022-09-25T07:42:09.701Z,3.85
2022-09-25T07:44:38.701Z,4.75
2022-09-25T07:47:08.899Z,3.00
2022-09-25T07:49:36.841Z,3.97
2022-09-25T07:52:06.128Z,4.90
2022-09-25T07:54:34.551Z,3.70
2022-09-25T07:57:02.317Z,4.13
2022-09-25T07:59:30.140Z,4.90
2022-09-25T08:01:59.002Z,5.43
2022-09-25T08:04:28.248Z,4.15
2022-09-25T08:06:55.981Z,3.88
2022-09-25T08:09:23.780Z,4.18
2022-09-25T08:11:51.773Z,4.60
2022-09-25T08:14:22.199Z,3.20
2022-09-25T08:16:55.793Z,5.82
2022-09-25T08:19:24.138Z,5.70
2022-09-25T08:21:53.585Z,3.13
2022-09-25T08:24:21.379Z,4.72
2022-09-25T08:26:50.176Z,1.75
2022-09-25T08:29:18.525Z,4.65
2022-09-25T08:31:46.484Z,2.83
2022-09-25T08:34:39.584Z,3.70
2022-09-25T08:37:07.645Z,4.45
2022-09-25T08:39:35.460Z,2.75
2022-09-25T08:42:03.615Z,3.53
2022-09-25T08:44:37.334Z,3.17
2022-09-25T08:47:40.478Z,4.15
2022-09-25T08:50:12.922Z,2.78
2022-09-25T08:52:45.310Z,3.63
2022-09-25T08:55:18.051Z,2.70
2022-09-25T08:57:47.301Z,3.72
2022-09-25T09:00:21.177Z,4.43
2022-09-25T09:02:54.582Z,5.35
2022-09-25T09:05:27.644Z,3.42
2022-09-25T09:08:01.480Z,3.95
2022-09-25T09:10:35.102Z,1.95
2022-09-25T09:13:21.889Z,3.42
2022-09-25T09:15:57.239Z,2.22
2022-09-25T09:18:36.003Z,2.47
2022-09-25T09:21:11.624Z,2.50
2022-09-25T09:23:50.814Z,1.90
2022-09-25T09:26:25.998Z,3.35
2022-09-25T09:29:20.972Z,3.10
2022-09-25T09:31:58.083Z,2.17
2022-09-25T09:35:04.159Z,3.92
2022-09-25T09:37:44.885Z,1.92
2022-09-25T09:40:25.334Z,2.90
2022-09-25T09:43:06.887Z,2.58
2022-09-25T09:45:45.234Z,3.38
2022-09-25T09:48:20.174Z,2.92
2022-09-25T09:50:53.094Z,3.08
2022-09-25T09:53:34.171Z,1.83
2022-09-25T09:56:09.366Z,2.03
2022-09-25T09:58:45.897Z,4.00
2022-09-25T10:01:36.500Z,4.05
2022-09-25T10:04:07.109Z,3.33
2022-09-25T10:06:39.276Z,4.05
2022-09-25T10:09:08.843Z,1.75
2022-09-25T10:11:38.791Z,2.13
2022-09-25T10:14:07.038Z,3.00
2022-09-25T10:16:37.019Z,3.10
2022-09-25T10:19:11.914Z,2.88
2022-09-25T10:21:43.334Z,2.78
2022-09-25T10:24:11.335Z,1.75
2022-09-25T10:26:41.537Z,2.72
2022-09-25T10:29:27.823Z,2.75
2022-09-25T10:32:00.955Z,1.52
2022-09-25T10:34:30.101Z,1.75
2022-09-25T10:36:58.731Z,1.38
2022-09-25T10:39:44.170Z,2.40
2022-09-25T10:42:38.767Z,1.75
2022-09-25T10:45:41.365Z,2.08
2022-09-25T10:48:48.504Z,2.30
2022-09-25T10:51:18.556Z,1.63
2022-09-25T10:53:47.348Z,3.15
2022-09-25T10:56:19.364Z,1.58
2022-09-25T10:58:55.220Z,1.65
2022-09-25T11:01:31.806Z,2.30
2022-09-25T11:04:00.614Z,2.33
2022-09-25T11:06:32.998Z,2.88
2022-09-25T11:09:09.015Z,2.00
2022-09-25T11:11:39.379Z,1.67
2022-09-25T11:14:18.816Z,2.28
2022-09-25T11:16:49.708Z,1.70
2022-09-25T11:19:23.524Z,1.30
2022-09-25T11:22:00.278Z,2.63
2022-09-25T11:24:40.455Z,1.30
2022-09-25T11:27:15.293Z,2.55
2022-09-25T11:29:54.467Z,1.67
2022-09-25T11:32:31.008Z,3.42
2022-09-25T11:35:16.177Z,3.65
2022-09-25T11:37:52.565Z,3.00
2022-09-25T11:40:49.392Z,3.92
2022-09-25T11:43:26.092Z,3.40
2022-09-25T11:46:08.277Z,3.38
2022-09-25T11:48:47.138Z,2.95
2022-09-25T11:51:24.994Z,3.47
2022-09-25T11:54:31.993Z,2.67
2022-09-25T11:57:01.897Z,2.80
2022-09-25T11:59:44.750Z,3.42
2022-09-25T12:02:27.910Z,2.53
2022-09-25T12:05:10.697Z,1.50
2022-09-25T12:10:37.465Z,1.85
2022-09-25T12:13:13.471Z,2.97
2022-09-25T12:15:53.672Z,1.98
2022-09-25T12:18:43.684Z,2.83
2022-09-25T12:21:17.623Z,2.08
2022-09-25T12:23:51.702Z,3.88
2022-09-25T12:26:30.621Z,3.35
2022-09-25T12:29:14.070Z,5.03
2022-09-25T12:31:53.556Z,3.60
2022-09-25T12:34:40.351Z,4.03
2022-09-25T12:37:23.105Z,2.60
2022-09-25T12:39:59.120Z,2.10
2022-09-25T12:42:38.019Z,2.45
2022-09-25T12:45:17.349Z,2.42
2022-09-25T12:47:51.752Z,2.22
2022-09-25T12:50:30.543Z,2.03
2022-09-25T12:53:06.011Z,2.20
2022-09-25T12:55:40.071Z,2.85
2022-09-25T12:58:18.540Z,2.15
2022-09-25T13:00:50.534Z,3.72
2022-09-25T13:03:25.192Z,2.60
2022-09-25T13:06:17.417Z,2.45
2022-09-25T13:08:52.888Z,3.10
2022-09-25T13:11:35.992Z,2.60
2022-09-25T13:14:10.465Z,2.15
2022-09-25T13:16:39.907Z,2.22
2022-09-25T13:19:12.851Z,1.73
2022-09-25T13:21:43.951Z,1.83
2022-09-25T13:24:15.698Z,2.53
2022-09-25T13:26:47.910Z,1.43
2022-09-25T13:29:24.132Z,2.17
2022-09-25T13:31:53.465Z,1.52
2022-09-25T13:34:24.470Z,3.17
2022-09-25T13:36:57.401Z,1.77
2022-09-25T13:39:50.628Z,1.85
2022-09-25T13:42:25.623Z,2.45
2022-09-25T13:45:07.739Z,2.42
2022-09-25T13:47:58.977Z,2.33
2022-09-25T13:50:34.758Z,3.05
2022-09-25T13:53:24.257Z,2.92
2022-09-25T13:56:19.607Z,3.83
2022-09-25T13:59:04.198Z,3.00
2022-09-25T14:01:45.331Z,2.92
2022-09-25T14:04:24.283Z,1.85
2022-09-25T14:07:01.395Z,2.45
2022-09-25T14:09:32.760Z,2.05
2022-09-25T14:12:08.879Z,1.35
2022-09-25T14:14:45.454Z,2.30
2022-09-25T14:17:17.035Z,2.47
2022-09-25T14:19:48.942Z,2.58
2022-09-25T14:22:24.745Z,0.88
2022-09-25T14:24:54.114Z,2.97
2022-09-25T14:27:26.499Z,1.38
2022-09-25T14:30:05.135Z,1.85
2022-09-25T14:32:55.757Z,2.50
2022-09-25T14:35:36.029Z,1.98
2022-09-25T14:38:37.286Z,1.05
2022-09-25T14:41:39.480Z,1.92
2022-09-25T14:44:32.431Z,0.60
2022-09-25T14:49:30.940Z,0.82
2022-09-25T14:52:02.840Z,2.22
2022-09-25T14:54:36.590Z,1.38
2022-09-25T14:57:07.530Z,1.98
2022-09-25T14:59:42.399Z,2.55
2022-09-25T15:02:18.786Z,1.75
2022-09-25T15:04:46.943Z,1.83
2022-09-25T15:07:18.849Z,2.58
2022-09-25T15:09:48.509Z,1.58
2022-09-25T15:12:21.334Z,1.65
2022-09-25T15:15:04.081Z,1.92
2022-09-25T15:20:04.017Z,1.88
2022-09-25T15:26:19.446Z,0.90
2022-09-25T15:28:49.477Z,0.85
2022-09-25T15:31:17.565Z,1.60
2022-09-25T15:33:45.659Z,1.50
2022-09-25T15:36:20.207Z,1.98
2022-09-25T15:39:00.098Z,1.40
2022-09-25T15:41:28.882Z,2.35
2022-09-25T15:44:20.129Z,1.88
2022-09-25T15:46:51.619Z,1.02
2022-09-25T15:49:25.561Z,2.08
2022-09-25T15:52:00.016Z,1.45
2022-09-25T15:54:34.564Z,1.95
2022-09-25T15:57:06.178Z,1.75
2022-09-25T16:00:02.323Z,1.85
2022-09-25T16:02:53.613Z,2.72
2022-09-25T16:05:32.881Z,1.70
2022-09-25T16:08:17.589Z,2.35
2022-09-25T16:10:50.149Z,1.05
2022-09-25T16:13:21.979Z,1.55
2022-09-25T16:15:54.627Z,2.33
2022-09-25T16:18:35.340Z,1.60
2022-09-25T16:21:20.655Z,0.93
2022-09-25T16:23:56.130Z,1.67
2022-09-25T16:26:27.523Z,1.77
2022-09-25T16:29:03.497Z,1.48
2022-09-25T16:31:36.436Z,2.17
2022-09-25T16:34:05.764Z,2.00
2022-09-25T16:36:43.693Z,2.05
2022-09-25T16:39:41.247Z,2.25
2022-09-25T16:42:31.315Z,2.17
2022-09-25T16:45:05.524Z,2.10
2022-09-25T16:47:35.179Z,3.75
2022-09-25T16:50:03.967Z,2.17
2022-09-25T16:53:03.645Z,1.27
2022-09-25T16:55:38.147Z,1.55
2022-09-25T16:58:09.832Z,2.58
2022-09-25T17:00:37.753Z,2.27
2022-09-25T17:03:07.154Z,2.13
2022-09-25T17:05:36.355Z,1.15
2022-09-25T17:08:17.997Z,2.00
2022-09-25T17:10:52.626Z,2.08
2022-09-25T17:13:27.913Z,1.50
2022-09-25T17:16:00.359Z,1.52
2022-09-25T17:21:48.282Z,1.30
2022-09-25T17:24:24.377Z,1.35
2022-09-25T17:26:54.805Z,1.25
2022-09-25T17:29:25.162Z,1.52
2022-09-25T17:32:02.567Z,1.85
2022-09-25T17:34:32.993Z,1.73
2022-09-25T17:37:14.651Z,1.40
2022-09-25T17:39:43.616Z,1.52
2022-09-25T17:42:23.494Z,2.28
2022-09-25T17:45:24.227Z,1.63
2022-09-25T17:47:56.680Z,0.88
2022-09-25T17:50:35.477Z,2.63
2022-09-25T17:53:20.335Z,2.63
2022-09-25T17:55:54.342Z,2.55
2022-09-25T17:58:26.424Z,2.50
2022-09-25T18:01:00.473Z,1.77
2022-09-25T18:03:30.327Z,1.85
2022-09-25T18:05:59.956Z,2.17
2022-09-25T18:08:27.868Z,2.10
2022-09-25T18:10:58.819Z,1.25
2022-09-25T18:13:26.941Z,1.83
2022-09-25T18:15:57.215Z,1.58
2022-09-25T18:18:25.803Z,1.52
2022-09-25T18:21:11.313Z,1.92
2022-09-25T18:23:40.602Z,0.98
2022-09-25T18:26:10.061Z,1.92
2022-09-25T18:28:38.226Z,2.70
2022-09-25T18:31:06.367Z,2.00
2022-09-25T18:33:34.594Z,2.75
2022-09-25T18:36:02.780Z,2.17
2022-09-25T18:38:31.333Z,2.88
2022-09-25T18:41:03.512Z,3.65
2022-09-25T18:43:31.793Z,3.75
2022-09-25T18:46:01.181Z,3.72
2022-09-25T18:48:29.401Z,3.63
2022-09-25T18:50:57.171Z,2.88
2022-09-25T18:53:25.632Z,2.40
2022-09-25T18:55:54.864Z,3.22
2022-09-25T18:58:24.029Z,2.92
2022-09-25T19:00:51.914Z,4.10
2022-09-25T19:03:19.649Z,3.33
2022-09-25T19:05:58.258Z,3.95
2022-09-25T19:08:26.110Z,3.22
2022-09-25T19:10:53.951Z,2.38
2022-09-25T19:13:22.026Z,4.90
2022-09-25T19:15:51.186Z,2.60
2022-09-25T19:18:19.146Z,3.40
2022-09-25T19:20:48.469Z,2.95
2022-09-25T19:23:16.317Z,2.63
2022-09-25T19:25:53.614Z,3.08
2022-09-25T19:28:23.601Z,2.60
2022-09-25T19:31:00.111Z,3.15
2022-09-25T19:33:31.185Z,3.88
2022-09-25T19:35:59.355Z,3.15
2022-09-25T19:38:27.583Z,3.08
2022-09-25T19:40:55.502Z,2.95
2022-09-25T19:43:24.133Z,3.13
2022-09-25T19:45:53.566Z,3.33
2022-09-25T19:48:24.019Z,2.13
2022-09-25T19:50:52.032Z,2.55
2022-09-25T19:53:19.843Z,2.97
2022-09-25T19:55:51.630Z,2.92
2022-09-25T19:58:23.121Z,2.90
2022-09-25T20:00:51.840Z,3.40
2022-09-25T20:03:20.181Z,3.60
2022-09-25T20:05:49.617Z,2.90
2022-09-25T20:08:17.410Z,3.90
2022-09-25T20:10:45.607Z,4.53
2022-09-25T20:13:14.482Z,4.57
2022-09-25T20:15:44.942Z,5.88
2022-09-25T20:18:12.773Z,3.65
2022-09-25T20:20:40.625Z,3.67
2022-09-25T20:23:10.417Z,4.05
2022-09-25T20:25:39.114Z,4.05
2022-09-25T20:28:06.899Z,3.53
2022-09-25T20:30:35.638Z,5.40
2022-09-25T20:33:04.749Z,3.45
2022-09-25T20:35:32.555Z,3.55
2022-09-25T20:38:00.353Z,4.95
2022-09-25T20:40:29.630Z,3.08
2022-09-25T20:42:57.374Z,3.28
2022-09-25T20:45:25.190Z,3.28
2022-09-25T20:47:55.352Z,2.97
2022-09-25T20:50:23.134Z,3.20
2022-09-25T20:52:51.000Z,3.05
2022-09-25T20:55:20.063Z,3.08
2022-09-25T20:57:49.208Z,4.57
2022-09-25T21:00:19.423Z,3.30
2022-09-25T21:02:47.592Z,4.07
2022-09-25T21:05:15.550Z,3.85
2022-09-25T21:07:43.397Z,3.28
2022-09-25T21:10:11.262Z,2.95
2022-09-25T21:12:39.016Z,3.90
2022-09-25T21:15:09.238Z,3.03
2022-09-25T21:17:36.978Z,4.90
2022-09-25T21:20:05.152Z,3.75
2022-09-25T21:22:32.935Z,3.45
2022-09-25T21:25:00.708Z,3.67
2022-09-25T21:27:30.779Z,3.05
2022-09-25T21:29:58.635Z,3.03
2022-09-25T21:32:30.098Z,3.47
2022-09-25T21:34:57.883Z,3.97
2022-09-25T21:37:25.681Z,5.10
2022-09-25T21:39:53.489Z,3.08
2022-09-25T21:42:22.065Z,4.22
2022-09-25T21:44:50.212Z,2.83
2022-09-25T21:47:19.107Z,5.68
2022-09-25T21:49:48.907Z,4.10
2022-09-25T21:52:16.648Z,2.92
2022-09-25T21:54:44.383Z,3.42
2022-09-25T21:57:12.162Z,3.33
2022-09-25T21:59:41.242Z,3.22
2022-09-25T22:02:09.046Z,3.58
2022-09-25T22:04:36.841Z,3.72
2022-09-25T22:07:06.165Z,3.85
2022-09-25T22:09:34.076Z,4.32
2022-09-25T22:12:02.126Z,3.38
2022-09-25T22:14:29.984Z,3.03
2022-09-25T22:16:57.790Z,3.10
2022-09-25T22:19:27.996Z,2.80
2022-09-25T22:21:57.853Z,3.30
2022-09-25T22:24:27.641Z,2.55
2022-09-25T22:26:56.808Z,3.67
2022-09-25T22:29:24.852Z,3.30
2022-09-25T22:31:53.019Z,4.05
2022-09-25T22:34:22.591Z,3.08
2022-09-25T22:36:56.257Z,3.72
2022-09-25T22:39:27.277Z,4.25
2022-09-25T22:41:56.530Z,4.13
2022-09-25T22:44:24.536Z,3.75
2022-09-25T22:46:52.369Z,4.35
2022-09-25T22:49:20.189Z,2.63
2022-09-25T22:51:47.935Z,3.92
2022-09-25T22:54:16.774Z,4.13
2022-09-25T22:56:45.971Z,3.75
2022-09-25T22:59:16.092Z,4.07
2022-09-25T23:01:46.523Z,4.80
2022-09-25T23:04:16.070Z,4.15
2022-09-25T23:06:44.069Z,3.80
2022-09-25T23:09:14.071Z,3.42
2022-09-25T23:11:42.303Z,3.38
2022-09-25T23:14:16.800Z,3.30
2022-09-25T23:16:45.648Z,3.70
2022-09-25T23:19:13.949Z,3.85
2022-09-25T23:21:42.631Z,3.28
2022-09-25T23:24:13.362Z,3.47
2022-09-25T23:26:41.213Z,3.67
2022-09-25T23:29:09.586Z,4.07
2022-09-25T23:31:38.717Z,5.07
2022-09-25T23:34:06.493Z,3.80
2022-09-25T23:36:36.053Z,3.65
2022-09-25T23:39:05.499Z,4.32
2022-09-25T23:41:35.706Z,3.55
2022-09-25T23:44:05.757Z,3.72
2022-09-25T23:46:36.234Z,4.32
2022-09-25T23:49:05.873Z,3.63
2022-09-25T23:51:34.114Z,3.22
2022-09-25T23:54:02.982Z,3.40
2022-09-25T23:56:33.513Z,3.45
2022-09-25T23:59:02.224Z,3.58
